Decoded Metar for LKTB (TURANY in CZECH REPUBLIC) (IATA:BRQ) | Meteo·Mobile Aviation Weather
aviador You're here:

LKTB Decoded Metar

TURANY in CZECH REPUBLIC
Report Time2018-09-24 19:00:00
UTC Time2018-09-24 19:22:44
Flight Rules vfr VFR
Wind300° at 10 kt
W.Decomp.*RWY 28: 9.6 kt HW 2.9 kt RCW
RWY 27: 8.9 kt HW 4.5 kt RCW
W.Rank300° ranks 7
Current wind is above 300° avg. (7.8)
Visibility9999 m
Phenomena:N/A
Clouds:N/A
Expected CloudBase > 3,200 ft AGL from Temp-Dew spread
CeilingNone
Temp10°C (ISA -3)
Dew Point02°C (58% RH)
AAT4.7°C
QNH1028 hPa
Density Alt-3 ft
Elevation807 ft
Report Wrong Elevation
Raw Report
LKTB 241900Z 30010KT CAVOK 10/02 Q1028 NOSIG=

Extra information for LKTB:More info

Metar Taf Metar & Taf Last 4 Metars F.Rules Stats Wind Profile Meteogram Temp Stats Airport Information Weather charts Add Link Nearby VenuesMetar ALERT Operation Metar Decoded Social comments